Time;durP1;ratioP1;P1;durP2;ratioP2;P2;SDS_P1;SDS_P2;PMS_P1;PMS_P2;Temp;Humidity;BMP_temperature;BMP_pressure;BME280_temperature;BME280_humidity;BME280_pressure;Samples;Min_cycle;Max_cycle;Signal;HPM_P1;HPM_P2
2021/11/02 08:46:02;;;;;;;3.63;1.57;;;10.00;99.90;;;;;;5010611;28;20623;-77
2021/11/02 08:48:29;;;;;;;4.50;1.70;;;10.00;99.90;;;;;;5012244;28;20217;-75
2021/11/02 08:51:00;;;;;;;2.87;1.90;;;10.10;99.90;;;;;;5012175;28;20676;-78
2021/11/02 08:53:28;;;;;;;5.03;2.23;;;10.00;99.90;;;;;;5011996;28;20212;-77
2021/11/02 08:55:55;;;;;;;3.30;2.03;;;9.90;99.90;;;;;;5011454;28;20230;-80
2021/11/02 08:58:26;;;;;;;3.00;1.80;;;9.80;99.90;;;;;;5012370;28;20798;-74
2021/11/02 09:00:54;;;;;;;3.43;1.87;;;9.70;99.90;;;;;;5013335;28;20681;-75
2021/11/02 09:03:23;;;;;;;2.40;1.80;;;9.80;99.90;;;;;;5013407;28;20205;-75
2021/11/02 09:05:54;;;;;;;4.63;2.10;;;9.80;99.90;;;;;;5013007;28;20209;-74
2021/11/02 09:08:24;;;;;;;3.33;2.03;;;9.90;99.90;;;;;;5012756;28;20225;-71
2021/11/02 09:10:51;;;;;;;2.33;1.73;;;10.00;99.90;;;;;;5012978;28;20292;-73
2021/11/02 09:13:21;;;;;;;3.03;2.23;;;10.20;99.90;;;;;;5013022;28;20240;-74
2021/11/02 09:15:48;;;;;;;3.97;1.60;;;10.20;99.90;;;;;;5012936;28;20240;-77
2021/11/02 09:18:17;;;;;;;3.13;1.90;;;10.30;99.90;;;;;;5012644;28;20708;-73
2021/11/02 09:20:44;;;;;;;2.43;1.67;;;10.30;99.90;;;;;;5012635;28;20661;-72
2021/11/02 09:23:11;;;;;;;5.87;2.10;;;10.30;99.90;;;;;;5012727;28;20211;-73
2021/11/02 09:25:40;;;;;;;2.57;1.50;;;10.50;99.90;;;;;;5012563;28;20276;-75
2021/11/02 09:28:07;;;;;;;2.40;1.23;;;10.60;99.90;;;;;;5013056;28;20225;-75
2021/11/02 09:30:34;;;;;;;3.50;1.87;;;10.50;99.90;;;;;;5012773;28;20206;-73
2021/11/02 09:33:01;;;;;;;2.97;1.43;;;10.20;99.90;;;;;;5012163;28;20206;-73
2021/11/02 09:35:31;;;;;;;1.90;1.40;;;10.10;99.90;;;;;;5012227;28;20221;-73
2021/11/02 09:38:07;;;;;;;3.23;1.90;;;10.20;99.90;;;;;;5011964;28;20233;-76
2021/11/02 09:41:17;;;;;;;3.13;1.37;;;10.40;99.90;;;;;;5011939;28;20736;-73
2021/11/02 09:44:27;;;;;;;2.97;1.40;;;10.50;99.90;;;;;;5012307;28;20201;-73
2021/11/02 09:47:31;;;;;;;2.90;1.33;;;10.40;99.90;;;;;;5011624;28;20205;-74
2021/11/02 09:50:33;;;;;;;2.77;1.50;;;10.40;99.90;;;;;;5012674;28;20209;-72
2021/11/02 09:53:34;;;;;;;3.17;1.90;;;10.40;99.90;;;;;;5012868;28;20227;-72
2021/11/02 09:56:18;;;;;;;3.80;1.70;;;10.60;99.90;;;;;;5012558;28;20231;-71
2021/11/02 09:59:21;;;;;;;3.40;1.80;;;10.60;99.90;;;;;;5012605;28;20236;-72
2021/11/02 10:01:57;;;;;;;5.17;2.40;;;10.60;99.90;;;;;;4994920;28;20213;-72
2021/11/02 10:04:55;;;;;;;2.07;1.60;;;10.70;99.90;;;;;;5012469;28;20220;-73
2021/11/02 10:08:00;;;;;;;3.27;1.80;;;10.70;99.90;;;;;;4988161;28;20792;-75
2021/11/02 10:10:40;;;;;;;3.33;1.40;;;10.80;99.90;;;;;;5012294;28;20612;-72
2021/11/02 10:13:24;;;;;;;6.30;2.27;;;10.60;99.90;;;;;;5012596;28;20208;-73
2021/11/02 10:16:04;;;;;;;2.27;1.40;;;10.50;99.90;;;;;;5012015;28;20308;-74
2021/11/02 10:18:51;;;;;;;1.90;1.40;;;10.50;99.90;;;;;;5014815;28;20240;-72
2021/11/02 10:21:43;;;;;;;2.17;1.53;;;10.50;99.90;;;;;;5015973;28;20205;-74
2021/11/02 10:24:45;;;;;;;2.70;1.40;;;10.60;99.90;;;;;;5015757;28;20292;-76
2021/11/02 10:27:22;;;;;;;2.07;1.20;;;10.50;99.90;;;;;;5008669;28;20241;-75
2021/11/02 10:30:32;;;;;;;1.90;1.20;;;10.40;99.90;;;;;;5015301;28;20210;-74
2021/11/02 10:33:03;;;;;;;2.07;1.43;;;10.30;99.90;;;;;;5015136;28;20206;-75
2021/11/02 10:35:44;;;;;;;2.67;1.20;;;10.30;99.90;;;;;;5015198;28;20206;-76
2021/11/02 10:38:13;;;;;;;2.90;1.57;;;10.30;99.90;;;;;;5014855;28;20225;-77
2021/11/02 10:40:51;;;;;;;2.40;1.90;;;10.30;99.90;;;;;;5015226;28;20213;-77
2021/11/02 10:43:44;;;;;;;3.27;1.67;;;10.40;99.90;;;;;;5014794;28;21048;-76
2021/11/02 10:46:14;;;;;;;1.63;1.37;;;10.50;99.90;;;;;;5015544;28;20209;-76
2021/11/02 10:48:43;;;;;;;6.13;1.77;;;10.70;99.90;;;;;;5015512;28;20230;-75
2021/11/02 10:51:25;;;;;;;2.40;1.47;;;10.80;99.90;;;;;;5015419;28;20225;-77
2021/11/02 10:54:01;;;;;;;2.07;1.57;;;10.90;99.90;;;;;;5015380;28;20202;-77
2021/11/02 10:56:52;;;;;;;2.10;1.20;;;11.00;99.90;;;;;;5015420;28;20236;-75
2021/11/02 10:59:23;;;;;;;3.37;1.47;;;11.10;99.90;;;;;;5015288;28;20669;-78
2021/11/02 11:01:56;;;;;;;1.53;1.30;;;11.20;99.90;;;;;;5014891;28;20685;-77
2021/11/02 11:04:28;;;;;;;2.10;1.50;;;11.30;99.90;;;;;;5015420;28;20205;-77
2021/11/02 11:06:58;;;;;;;2.80;1.70;;;11.30;99.90;;;;;;5015197;28;20300;-76
2021/11/02 11:09:29;;;;;;;2.07;1.10;;;11.30;99.90;;;;;;5015037;28;20213;-77
2021/11/02 11:11:59;;;;;;;1.60;1.17;;;11.10;99.90;;;;;;5015235;28;20206;-77
2021/11/02 11:14:30;;;;;;;1.60;1.20;;;11.10;99.90;;;;;;5015007;28;20209;-76
2021/11/02 11:16:59;;;;;;;2.03;1.20;;;11.10;99.90;;;;;;5014627;28;20669;-77
2021/11/02 11:19:28;;;;;;;3.00;1.23;;;11.20;99.90;;;;;;5014935;28;20212;-77
2021/11/02 11:21:58;;;;;;;2.03;1.30;;;11.10;99.90;;;;;;5014747;28;20725;-74
2021/11/02 11:24:32;;;;;;;3.00;1.23;;;11.10;99.90;;;;;;5014959;28;20639;-76
2021/11/02 11:27:05;;;;;;;1.23;0.87;;;11.30;99.90;;;;;;5015118;28;20592;-78
2021/11/02 11:29:35;;;;;;;1.53;1.23;;;11.30;99.90;;;;;;5014807;28;20236;-77
2021/11/02 11:32:06;;;;;;;1.20;1.00;;;11.50;99.90;;;;;;5014839;28;20205;-77
2021/11/02 11:34:35;;;;;;;2.07;1.20;;;11.70;99.90;;;;;;5014816;28;20677;-76
2021/11/02 11:37:06;;;;;;;1.37;1.10;;;11.80;99.90;;;;;;5014298;28;20590;-74
2021/11/02 11:39:33;;;;;;;1.73;0.97;;;12.00;99.90;;;;;;5014676;28;20292;-75
2021/11/02 11:42:01;;;;;;;1.27;0.83;;;12.10;99.90;;;;;;5014766;28;20205;-77
2021/11/02 11:44:29;;;;;;;1.97;1.40;;;11.90;99.90;;;;;;5014614;28;20209;-75
2021/11/02 11:47:06;;;;;;;1.40;0.80;;;11.70;99.90;;;;;;5014357;28;20206;-74
2021/11/02 11:49:35;;;;;;;2.00;1.13;;;11.50;99.90;;;;;;5014318;28;20217;-74
2021/11/02 11:52:04;;;;;;;1.83;0.90;;;11.40;99.90;;;;;;5014643;28;20205;-76
2021/11/02 11:54:42;;;;;;;1.60;0.83;;;11.40;99.90;;;;;;5014404;28;20216;-78
2021/11/02 11:57:09;;;;;;;1.53;1.07;;;11.40;99.90;;;;;;5014217;28;20237;-78
2021/11/02 11:59:37;;;;;;;2.17;1.10;;;11.60;99.90;;;;;;5014146;28;20205;-76
2021/11/02 12:02:13;;;;;;;1.80;1.20;;;11.60;99.90;;;;;;5013958;28;20209;-76
2021/11/02 12:04:47;;;;;;;3.20;1.10;;;11.40;99.90;;;;;;5014273;28;20205;-76
2021/11/02 12:07:32;;;;;;;1.70;0.90;;;11.20;99.90;;;;;;5014006;28;20224;-77
2021/11/02 12:10:05;;;;;;;1.83;1.00;;;11.40;99.90;;;;;;5013985;28;20213;-77
2021/11/02 12:12:34;;;;;;;1.40;1.00;;;11.40;99.90;;;;;;5013868;28;20293;-76
2021/11/02 12:15:07;;;;;;;3.60;1.10;;;11.40;99.90;;;;;;5014088;28;20209;-74
2021/11/02 12:17:41;;;;;;;1.40;0.87;;;11.30;99.90;;;;;;5013935;28;20237;-77
2021/11/02 12:20:11;;;;;;;1.37;0.70;;;11.40;99.90;;;;;;5014115;28;20202;-77
2021/11/02 12:22:46;;;;;;;2.30;0.90;;;11.50;99.90;;;;;;5013747;28;20206;-76
2021/11/02 12:25:21;;;;;;;2.47;1.10;;;11.50;99.90;;;;;;5013757;28;20205;-74
2021/11/02 12:27:49;;;;;;;1.13;0.83;;;11.40;99.90;;;;;;5013790;28;20229;-77
2021/11/02 12:30:19;;;;;;;1.63;0.87;;;11.40;99.90;;;;;;5013710;28;20212;-75
2021/11/02 12:32:51;;;;;;;2.00;0.90;;;11.40;99.90;;;;;;5013745;28;20205;-75
2021/11/02 12:35:45;;;;;;;2.47;0.97;;;11.60;99.90;;;;;;5013461;28;20304;-75
2021/11/02 12:38:13;;;;;;;2.83;0.70;;;11.60;99.90;;;;;;5012329;28;20721;-76
2021/11/02 12:40:41;;;;;;;1.10;0.60;;;11.40;99.90;;;;;;5011876;28;20555;-76
2021/11/02 12:43:21;;;;;;;1.33;0.60;;;11.40;99.90;;;;;;5013268;28;20220;-76
2021/11/02 12:45:49;;;;;;;3.00;0.73;;;11.30;99.90;;;;;;5013214;28;20201;-75
2021/11/02 12:48:18;;;;;;;3.70;0.70;;;11.30;99.90;;;;;;5012875;28;20233;-79
2021/11/02 12:50:48;;;;;;;1.17;0.70;;;11.30;99.90;;;;;;5008251;28;20297;-75
2021/11/02 12:53:16;;;;;;;2.40;0.87;;;11.10;99.90;;;;;;5009172;28;20570;-75
2021/11/02 12:55:45;;;;;;;3.27;0.90;;;11.10;99.90;;;;;;5012449;28;20205;-76
2021/11/02 12:58:17;;;;;;;1.83;0.90;;;11.20;99.90;;;;;;4992995;28;20721;-78
2021/11/02 13:00:50;;;;;;;2.77;0.83;;;11.20;99.90;;;;;;5002802;28;20201;-77
2021/11/02 13:03:28;;;;;;;3.30;1.00;;;11.10;99.90;;;;;;5012932;28;20206;-77
2021/11/02 13:05:57;;;;;;;1.70;1.00;;;11.00;99.90;;;;;;5013228;28;20205;-75
2021/11/02 13:08:35;;;;;;;1.60;1.00;;;11.00;99.90;;;;;;5012890;28;20221;-76
2021/11/02 13:11:10;;;;;;;2.17;0.90;;;11.00;99.90;;;;;;5012759;28;20197;-76
2021/11/02 13:14:01;;;;;;;1.83;0.63;;;11.00;99.90;;;;;;5013242;28;20205;-74
2021/11/02 13:16:29;;;;;;;2.13;0.80;;;11.10;99.90;;;;;;5012510;28;20267;-74
2021/11/02 13:18:57;;;;;;;3.33;1.03;;;11.20;99.90;;;;;;5012573;28;20237;-76
2021/11/02 13:21:29;;;;;;;1.37;0.80;;;11.20;99.90;;;;;;5012793;28;20293;-75
2021/11/02 13:24:02;;;;;;;1.40;1.00;;;11.30;99.90;;;;;;5013314;28;20317;-74
2021/11/02 13:26:29;;;;;;;2.50;0.80;;;11.30;99.90;;;;;;5012404;28;20209;-76
2021/11/02 13:29:10;;;;;;;0.73;0.70;;;11.50;99.90;;;;;;5013111;28;20229;-75
2021/11/02 13:31:37;;;;;;;1.53;0.97;;;11.50;99.90;;;;;;5012981;28;20213;-75
2021/11/02 13:34:08;;;;;;;1.87;1.00;;;11.50;99.90;;;;;;5012841;28;20212;-75
2021/11/02 13:36:36;;;;;;;4.03;1.13;;;11.60;99.90;;;;;;5012814;28;20210;-75
2021/11/02 13:39:06;;;;;;;3.13;1.13;;;11.70;99.90;;;;;;5012748;28;20241;-76
2021/11/02 13:41:34;;;;;;;1.73;1.20;;;11.80;99.90;;;;;;5012222;28;20214;-76
2021/11/02 13:44:04;;;;;;;2.33;1.10;;;11.80;99.90;;;;;;5012382;28;20205;-76
2021/11/02 13:46:34;;;;;;;1.77;0.83;;;11.80;99.90;;;;;;5012489;28;20677;-76
2021/11/02 13:49:01;;;;;;;3.80;1.10;;;11.70;99.90;;;;;;5012713;28;20236;-76
2021/11/02 13:51:30;;;;;;;1.20;0.83;;;11.80;99.90;;;;;;5014633;28;20673;-76
2021/11/02 13:53:56;;;;;;;6.10;1.00;;;12.00;99.90;;;;;;5016699;28;20566;-76
2021/11/02 13:56:25;;;;;;;2.80;1.00;;;12.10;99.90;;;;;;5016335;28;20595;-75
2021/11/02 13:58:53;;;;;;;2.03;1.00;;;12.20;99.90;;;;;;5016033;28;20721;-76
2021/11/02 14:01:25;;;;;;;2.17;1.27;;;12.40;99.90;;;;;;5016342;28;20217;-76
2021/11/02 14:03:58;;;;;;;1.43;1.07;;;12.50;99.90;;;;;;5015914;28;20224;-75
2021/11/02 14:06:26;;;;;;;2.17;1.20;;;12.60;99.90;;;;;;5016138;28;20293;-75
2021/11/02 14:08:56;;;;;;;1.10;0.83;;;12.50;99.90;;;;;;5015910;28;20232;-75
2021/11/02 14:11:26;;;;;;;1.03;0.77;;;12.30;99.90;;;;;;5016290;28;20209;-75
2021/11/02 14:13:54;;;;;;;3.43;1.10;;;12.20;99.90;;;;;;5016573;28;20202;-75
2021/11/02 14:16:36;;;;;;;1.73;1.10;;;12.10;99.90;;;;;;5016085;28;20206;-75
2021/11/02 14:19:04;;;;;;;2.17;1.00;;;12.00;99.90;;;;;;5016067;28;20324;-75
2021/11/02 14:21:50;;;;;;;2.47;0.83;;;12.00;99.90;;;;;;5015945;28;20296;-75
2021/11/02 14:24:30;;;;;;;1.33;0.87;;;12.00;99.90;;;;;;5016189;28;20248;-75
2021/11/02 14:26:57;;;;;;;2.90;1.20;;;12.20;99.90;;;;;;5015958;28;20211;-76
2021/11/02 14:29:45;;;;;;;1.93;1.17;;;12.20;99.90;;;;;;5015958;28;20220;-76
2021/11/02 14:32:12;;;;;;;3.23;1.03;;;12.00;99.90;;;;;;5015511;28;20566;-75
2021/11/02 14:34:49;;;;;;;2.13;1.03;;;11.80;99.90;;;;;;5016119;28;20201;-75
2021/11/02 14:37:17;;;;;;;1.13;0.80;;;11.90;99.90;;;;;;5015779;28;20221;-76
2021/11/02 14:39:56;;;;;;;2.73;0.97;;;11.90;99.90;;;;;;5015730;28;20206;-76
2021/11/02 14:42:50;;;;;;;1.77;1.00;;;12.00;99.90;;;;;;5015738;28;20206;-76
2021/11/02 14:45:18;;;;;;;1.63;1.10;;;12.20;99.90;;;;;;5015999;28;20206;-76
2021/11/02 14:47:45;;;;;;;1.37;0.90;;;12.20;99.90;;;;;;5015697;28;20316;-76
2021/11/02 14:50:35;;;;;;;1.90;1.30;;;12.20;99.90;;;;;;5015719;28;20201;-75
2021/11/02 14:53:13;;;;;;;1.83;1.00;;;12.10;99.90;;;;;;5015368;28;20210;-74
2021/11/02 14:55:53;;;;;;;5.50;1.00;;;12.10;99.90;;;;;;5014919;28;20685;-75
2021/11/02 14:58:50;;;;;;;1.70;1.10;;;12.00;99.90;;;;;;5013896;28;20332;-75
2021/11/02 15:01:20;;;;;;;1.30;0.80;;;12.10;99.90;;;;;;5014332;28;20213;-75
2021/11/02 15:03:53;;;;;;;1.43;1.00;;;12.00;99.90;;;;;;5013789;28;20933;-75
2021/11/02 15:06:21;;;;;;;1.30;0.90;;;11.90;99.90;;;;;;5014795;28;20205;-74
2021/11/02 15:08:50;;;;;;;1.57;0.87;;;11.70;99.90;;;;;;5014917;28;20225;-74
2021/11/02 15:11:19;;;;;;;3.23;0.70;;;11.70;99.90;;;;;;5014994;28;20233;-74
2021/11/02 15:13:51;;;;;;;1.23;1.00;;;11.60;99.90;;;;;;5014696;28;20667;-74
2021/11/02 15:16:19;;;;;;;1.77;0.90;;;11.60;99.90;;;;;;5015033;28;20205;-74
2021/11/02 15:18:49;;;;;;;1.10;0.73;;;11.50;99.90;;;;;;5014579;28;20237;-74
2021/11/02 15:21:21;;;;;;;8.77;1.10;;;11.50;99.90;;;;;;5014497;28;20659;-74
2021/11/02 15:23:50;;;;;;;1.00;0.80;;;11.50;99.90;;;;;;5014046;28;20736;-74
2021/11/02 15:26:19;;;;;;;2.27;0.90;;;11.50;99.90;;;;;;5014434;28;20700;-76
2021/11/02 15:28:48;;;;;;;0.80;0.63;;;11.30;99.90;;;;;;5014521;28;20232;-75
2021/11/02 15:31:16;;;;;;;0.70;0.40;;;11.30;99.90;;;;;;5014321;28;20301;-75
2021/11/02 15:33:44;;;;;;;2.20;0.60;;;11.10;99.90;;;;;;5014450;28;20216;-75
2021/11/02 15:36:13;;;;;;;0.90;0.60;;;11.00;99.90;;;;;;5013973;28;20210;-76
2021/11/02 15:38:41;;;;;;;1.83;0.63;;;10.90;99.90;;;;;;5013864;28;20698;-76
2021/11/02 15:41:23;;;;;;;1.10;0.60;;;10.80;99.90;;;;;;5014297;28;20206;-76
2021/11/02 15:43:53;;;;;;;1.30;0.60;;;10.70;99.90;;;;;;5014337;28;20304;-76
2021/11/02 15:46:25;;;;;;;1.07;0.67;;;10.60;99.90;;;;;;5014560;28;20292;-76
2021/11/02 15:48:55;;;;;;;1.23;0.70;;;10.60;99.90;;;;;;5014097;28;20575;-75
2021/11/02 15:51:24;;;;;;;1.87;0.70;;;10.60;99.90;;;;;;5013833;28;20593;-75
2021/11/02 15:53:51;;;;;;;1.70;0.80;;;10.60;99.90;;;;;;5013838;28;20217;-75
2021/11/02 15:56:25;;;;;;;1.27;0.87;;;10.60;99.90;;;;;;5013946;28;20206;-75
2021/11/02 15:59:01;;;;;;;1.53;0.80;;;10.50;99.90;;;;;;5013693;28;20280;-75
2021/11/02 16:01:33;;;;;;;1.50;0.60;;;10.40;99.90;;;;;;5013739;28;20224;-76
2021/11/02 16:04:18;;;;;;;0.90;0.60;;;10.30;99.90;;;;;;5014131;28;20228;-76
2021/11/02 16:07:10;;;;;;;3.20;0.67;;;10.20;99.90;;;;;;5014100;28;20256;-75
2021/11/02 16:09:46;;;;;;;1.70;0.70;;;10.10;99.90;;;;;;5013724;28;20217;-75
2021/11/02 16:12:16;;;;;;;1.33;0.70;;;9.90;99.90;;;;;;5013916;28;20292;-76
2021/11/02 16:14:55;;;;;;;2.10;0.90;;;9.80;99.90;;;;;;5012673;28;20206;-76
2021/11/02 16:17:23;;;;;;;1.73;0.70;;;9.70;99.90;;;;;;5013425;28;20244;-75
2021/11/02 16:19:52;;;;;;;1.00;0.70;;;9.60;99.90;;;;;;5013421;28;20329;-75
2021/11/02 16:22:20;;;;;;;2.70;0.80;;;9.60;99.90;;;;;;5013529;28;20212;-76
2021/11/02 16:24:46;;;;;;;1.10;0.60;;;9.40;99.90;;;;;;5013678;28;20205;-76
2021/11/02 16:27:21;;;;;;;1.53;0.80;;;9.40;99.90;;;;;;5013547;28;20317;-76
2021/11/02 16:29:50;;;;;;;1.23;0.80;;;9.60;99.90;;;;;;5013254;28;20211;-75
2021/11/02 16:32:22;;;;;;;1.17;0.70;;;9.50;99.90;;;;;;5012524;28;20584;-75
2021/11/02 16:34:48;;;;;;;1.00;0.80;;;9.40;99.90;;;;;;5013112;28;20215;-75
2021/11/02 16:37:29;;;;;;;1.70;0.70;;;9.20;99.90;;;;;;5013342;28;20698;-75
2021/11/02 16:40:21;;;;;;;0.90;0.70;;;9.00;99.90;;;;;;5013842;28;20244;-76
2021/11/02 16:43:01;;;;;;;1.67;0.70;;;8.90;99.90;;;;;;5013670;28;20210;-76
2021/11/02 16:45:34;;;;;;;0.70;0.60;;;8.90;99.90;;;;;;5013755;28;20340;-75
2021/11/02 16:48:03;;;;;;;1.63;0.50;;;8.90;99.90;;;;;;5013125;28;20221;-75
2021/11/02 16:50:33;;;;;;;1.20;0.63;;;8.90;99.90;;;;;;5013513;28;20229;-75
2021/11/02 16:53:17;;;;;;;0.93;0.60;;;8.80;99.90;;;;;;5013370;28;20220;-76
2021/11/02 16:55:46;;;;;;;1.13;0.70;;;8.80;99.90;;;;;;5013310;28;20209;-75
2021/11/02 16:58:33;;;;;;;1.37;0.67;;;8.70;99.90;;;;;;5013380;28;20239;-75
2021/11/02 17:01:25;;;;;;;2.67;0.80;;;8.80;99.90;;;;;;5013319;28;20213;-75
2021/11/02 17:03:53;;;;;;;1.80;1.17;;;8.70;99.90;;;;;;5013109;28;20202;-75
2021/11/02 17:06:22;;;;;;;1.77;0.83;;;8.50;99.90;;;;;;5013524;28;20348;-76
2021/11/02 17:08:51;;;;;;;1.43;1.00;;;8.50;99.90;;;;;;5013236;28;20240;-75
2021/11/02 17:11:21;;;;;;;1.07;0.93;;;8.40;99.90;;;;;;5012904;28;20210;-75
2021/11/02 17:13:50;;;;;;;1.90;1.00;;;8.30;99.90;;;;;;5012892;28;20221;-76
2021/11/02 17:16:18;;;;;;;1.73;0.93;;;8.30;99.90;;;;;;5012618;28;20725;-75
2021/11/02 17:18:52;;;;;;;2.23;0.90;;;8.20;99.90;;;;;;5012482;28;20237;-76
2021/11/02 17:21:20;;;;;;;4.17;1.70;;;8.10;99.90;;;;;;5012725;28;20209;-75
2021/11/02 17:23:46;;;;;;;2.30;1.10;;;8.00;99.90;;;;;;5012718;28;20578;-75
2021/11/02 17:26:15;;;;;;;5.50;1.23;;;8.00;99.90;;;;;;5012828;28;20207;-75
2021/11/02 17:28:46;;;;;;;2.37;1.37;;;8.00;99.90;;;;;;5012907;28;20241;-75
2021/11/02 17:31:15;;;;;;;2.13;1.37;;;8.10;99.90;;;;;;5012821;28;20205;-75
2021/11/02 17:33:42;;;;;;;2.43;1.50;;;8.10;99.90;;;;;;5012981;28;20206;-75
2021/11/02 17:36:12;;;;;;;2.53;1.63;;;8.10;99.90;;;;;;5012887;28;20242;-76
2021/11/02 17:38:40;;;;;;;2.90;1.60;;;8.10;99.90;;;;;;5012279;28;20669;-75
2021/11/02 17:41:08;;;;;;;5.37;1.90;;;7.90;99.90;;;;;;5012225;28;20300;-76
2021/11/02 17:43:36;;;;;;;1.50;1.30;;;7.80;99.90;;;;;;5012010;28;20617;-75
2021/11/02 17:46:03;;;;;;;2.97;1.60;;;7.70;99.90;;;;;;5012588;28;20331;-75
2021/11/02 17:48:32;;;;;;;3.37;2.07;;;7.80;99.90;;;;;;5012546;28;20229;-76
2021/11/02 17:50:59;;;;;;;8.00;2.07;;;7.70;99.90;;;;;;5012367;28;20217;-75
2021/11/02 17:53:27;;;;;;;5.43;1.60;;;7.70;99.90;;;;;;5012702;28;20206;-76
2021/11/02 17:55:56;;;;;;;3.50;1.83;;;7.70;99.90;;;;;;5012565;28;20288;-75
2021/11/02 17:58:25;;;;;;;5.57;2.30;;;7.70;99.90;;;;;;5012633;28;20226;-76
2021/11/02 18:00:55;;;;;;;4.17;1.73;;;7.80;99.90;;;;;;5012002;28;20212;-76
2021/11/02 18:03:23;;;;;;;3.40;2.00;;;7.90;99.90;;;;;;5007700;28;20647;-74
2021/11/02 18:05:59;;;;;;;5.10;2.50;;;7.90;99.90;;;;;;5012209;28;20214;-76
2021/11/02 18:08:26;;;;;;;4.07;2.20;;;7.80;99.90;;;;;;5012355;28;20217;-76
2021/11/02 18:10:54;;;;;;;5.57;2.67;;;7.90;99.90;;;;;;5012670;28;20216;-74
2021/11/02 18:13:21;;;;;;;4.47;2.57;;;7.70;99.90;;;;;;5012320;28;20666;-75
2021/11/02 18:15:49;;;;;;;4.13;2.43;;;7.60;99.90;;;;;;5012365;28;20205;-74
2021/11/02 18:18:17;;;;;;;5.43;2.30;;;7.60;99.90;;;;;;5010891;28;20226;-74
2021/11/02 18:20:45;;;;;;;5.07;2.40;;;7.60;99.90;;;;;;5012246;28;20213;-73
2021/11/02 18:23:15;;;;;;;5.30;2.30;;;7.60;99.90;;;;;;5011588;28;20210;-73
2021/11/02 18:25:42;;;;;;;6.53;2.60;;;7.60;99.90;;;;;;5011961;28;20205;-78
2021/11/02 18:28:09;;;;;;;5.77;3.13;;;7.60;99.90;;;;;;5010877;28;20226;-74
2021/11/02 18:30:37;;;;;;;4.63;2.60;;;7.60;99.90;;;;;;5012058;28;20213;-73
2021/11/02 18:33:05;;;;;;;5.20;2.77;;;7.60;99.90;;;;;;5010985;28;20202;-73
2021/11/02 18:35:33;;;;;;;5.00;2.50;;;7.70;99.90;;;;;;5011069;28;20263;-73
2021/11/02 18:38:00;;;;;;;7.27;2.77;;;7.60;99.90;;;;;;5011790;28;20765;-74
2021/11/02 18:40:30;;;;;;;6.77;3.03;;;7.50;99.90;;;;;;5014655;28;20229;-74
2021/11/02 18:42:57;;;;;;;5.70;3.00;;;7.40;99.90;;;;;;5014362;28;20566;-74
2021/11/02 18:45:26;;;;;;;4.07;2.30;;;7.40;99.90;;;;;;5015454;28;20248;-74
2021/11/02 18:47:53;;;;;;;6.90;3.03;;;7.40;99.90;;;;;;5014869;28;20229;-74
2021/11/02 18:50:25;;;;;;;6.07;3.23;;;7.50;99.90;;;;;;5015179;28;20224;-73
2021/11/02 18:52:52;;;;;;;6.50;2.73;;;7.50;99.90;;;;;;5014742;28;20206;-72
2021/11/02 18:55:20;;;;;;;5.73;2.23;;;7.40;99.90;;;;;;5014762;28;20209;-73
2021/11/02 18:57:48;;;;;;;3.53;2.37;;;7.30;99.90;;;;;;5014989;28;20249;-73
2021/11/02 19:00:17;;;;;;;4.97;2.53;;;7.30;99.90;;;;;;5014940;28;20325;-73
2021/11/02 19:02:44;;;;;;;6.60;2.53;;;7.30;99.90;;;;;;5014644;28;20220;-72
2021/11/02 19:05:11;;;;;;;4.47;2.37;;;7.30;99.90;;;;;;5015072;28;20237;-73
2021/11/02 19:07:39;;;;;;;3.80;2.27;;;7.20;99.90;;;;;;5015020;28;20228;-73
2021/11/02 19:10:08;;;;;;;4.10;2.30;;;7.30;99.90;;;;;;5007635;28;20205;-74
2021/11/02 19:12:36;;;;;;;4.57;2.40;;;7.30;99.90;;;;;;5004952;28;20256;-74
2021/11/02 19:15:06;;;;;;;2.97;2.13;;;7.20;99.90;;;;;;5009866;28;20276;-73
2021/11/02 19:17:34;;;;;;;5.10;2.30;;;7.00;99.90;;;;;;5015210;28;20316;-73
2021/11/02 19:20:01;;;;;;;5.13;2.20;;;6.90;99.90;;;;;;5003030;28;20288;-73
2021/11/02 19:22:29;;;;;;;4.60;2.70;;;6.80;99.90;;;;;;5007665;28;20209;-73
2021/11/02 19:24:59;;;;;;;3.87;2.47;;;6.80;99.90;;;;;;5008447;28;20296;-74
2021/11/02 19:27:27;;;;;;;5.10;2.80;;;6.70;99.90;;;;;;5012950;28;20321;-73
2021/11/02 19:29:55;;;;;;;3.10;2.20;;;6.60;99.90;;;;;;5003795;28;20244;-74
2021/11/02 19:32:25;;;;;;;3.83;2.50;;;6.70;99.90;;;;;;5001009;28;20211;-76
2021/11/02 19:34:53;;;;;;;4.37;2.73;;;6.70;99.90;;;;;;5004640;28;20208;-74
2021/11/02 19:37:20;;;;;;;5.60;2.90;;;6.80;99.90;;;;;;5005993;28;20318;-74
2021/11/02 19:39:51;;;;;;;5.13;2.37;;;6.70;99.90;;;;;;5006163;28;20230;-75
2021/11/02 19:42:20;;;;;;;6.10;2.90;;;6.70;99.90;;;;;;5000481;28;20210;-75
2021/11/02 19:44:47;;;;;;;5.90;2.53;;;6.60;99.90;;;;;;5001193;28;20217;-75
2021/11/02 19:47:17;;;;;;;5.23;2.80;;;6.50;99.90;;;;;;5007995;28;20641;-74
2021/11/02 19:49:48;;;;;;;6.77;3.00;;;6.50;99.90;;;;;;5002432;28;20216;-75
2021/11/02 19:52:17;;;;;;;4.73;2.43;;;6.50;99.90;;;;;;5005229;28;20665;-74
2021/11/02 19:54:45;;;;;;;5.07;3.10;;;6.40;99.90;;;;;;5009213;28;20205;-75
2021/11/02 19:57:14;;;;;;;6.60;2.87;;;6.40;99.90;;;;;;5007292;28;20570;-75
2021/11/02 19:59:45;;;;;;;3.90;2.57;;;6.40;99.90;;;;;;5000637;28;20265;-74
2021/11/02 20:02:12;;;;;;;4.80;3.20;;;6.40;99.90;;;;;;4994874;28;20222;-74
2021/11/02 20:04:38;;;;;;;4.60;2.93;;;6.40;99.90;;;;;;4993638;28;20210;-74
2021/11/02 20:07:15;;;;;;;7.87;2.87;;;6.50;99.90;;;;;;4993326;28;20202;-73
2021/11/02 20:09:45;;;;;;;7.40;3.33;;;6.50;99.90;;;;;;4994400;28;20213;-73
2021/11/02 20:12:15;;;;;;;6.23;2.97;;;6.60;99.90;;;;;;4993918;28;20685;-73
2021/11/02 20:14:44;;;;;;;4.97;2.57;;;6.70;99.90;;;;;;4994333;28;20202;-72
2021/11/02 20:17:13;;;;;;;5.87;3.50;;;6.70;99.90;;;;;;4994199;28;20210;-73
2021/11/02 20:19:40;;;;;;;10.70;3.63;;;6.60;99.90;;;;;;4994206;28;20326;-73
2021/11/02 20:22:08;;;;;;;5.57;3.27;;;6.50;99.90;;;;;;4994391;28;20202;-72
2021/11/02 20:24:38;;;;;;;5.67;3.40;;;6.50;99.90;;;;;;4994708;28;20206;-75
2021/11/02 20:27:06;;;;;;;5.60;3.37;;;6.50;99.90;;;;;;4994210;28;20206;-75
2021/11/02 20:29:34;;;;;;;6.17;3.13;;;6.60;99.90;;;;;;4994302;28;20578;-76
2021/11/02 20:32:02;;;;;;;7.43;3.40;;;6.50;99.90;;;;;;4994080;28;20233;-74
2021/11/02 20:34:29;;;;;;;4.57;3.27;;;6.40;99.90;;;;;;4994122;28;20211;-75
2021/11/02 20:37:02;;;;;;;7.27;3.80;;;6.30;99.90;;;;;;4993993;28;20212;-75
2021/11/02 20:39:38;;;;;;;6.50;3.13;;;6.20;99.90;;;;;;4994255;28;20222;-75
2021/11/02 20:42:06;;;;;;;4.33;3.30;;;6.10;99.90;;;;;;4994194;28;20289;-75
2021/11/02 20:44:34;;;;;;;4.90;3.27;;;6.00;99.90;;;;;;4993680;28;20257;-75
2021/11/02 20:47:04;;;;;;;7.20;4.07;;;6.00;99.90;;;;;;4993550;28;20214;-74
2021/11/02 20:49:36;;;;;;;9.40;4.00;;;6.00;99.90;;;;;;4993629;28;20224;-75
2021/11/02 20:52:04;;;;;;;6.67;3.80;;;6.00;99.90;;;;;;4993800;28;20687;-75
2021/11/02 20:54:32;;;;;;;6.67;3.90;;;6.20;99.90;;;;;;4993950;28;20257;-75
2021/11/02 20:57:00;;;;;;;6.43;4.07;;;6.30;99.90;;;;;;4993804;28;20217;-74
2021/11/02 20:59:27;;;;;;;7.10;3.73;;;6.40;99.90;;;;;;4993499;28;20222;-75
2021/11/02 21:01:55;;;;;;;7.97;3.90;;;6.40;99.90;;;;;;4993092;28;20218;-75
2021/11/02 21:04:22;;;;;;;7.10;3.93;;;6.40;99.90;;;;;;4993807;28;20238;-75
2021/11/02 21:06:53;;;;;;;7.23;4.23;;;6.40;99.90;;;;;;4993799;28;20220;-75
2021/11/02 21:09:27;;;;;;;6.67;3.70;;;6.30;99.90;;;;;;4993421;28;20213;-74
2021/11/02 21:11:59;;;;;;;7.93;3.60;;;6.20;99.90;;;;;;4993353;28;20210;-74
2021/11/02 21:14:28;;;;;;;6.67;3.40;;;6.30;99.90;;;;;;4993823;28;20265;-74
2021/11/02 21:16:56;;;;;;;6.90;3.70;;;6.50;99.90;;;;;;4993273;28;20203;-73
2021/11/02 21:19:27;;;;;;;5.90;3.67;;;6.60;99.90;;;;;;4993504;28;20210;-74
2021/11/02 21:21:55;;;;;;;7.17;3.40;;;6.70;99.90;;;;;;4993351;28;20209;-74
2021/11/02 21:24:24;;;;;;;6.53;3.70;;;6.90;99.90;;;;;;4992508;28;20715;-73
2021/11/02 21:26:51;;;;;;;6.90;3.57;;;7.10;99.90;;;;;;4993221;28;20738;-73
2021/11/02 21:29:20;;;;;;;7.60;3.50;;;7.00;99.90;;;;;;4992873;28;20226;-74
2021/11/02 21:31:49;;;;;;;8.00;3.57;;;6.90;99.90;;;;;;4993088;28;20210;-74
2021/11/02 21:34:16;;;;;;;5.30;2.97;;;7.00;99.90;;;;;;4993475;28;20206;-73
2021/11/02 21:36:43;;;;;;;8.80;3.50;;;7.10;99.90;;;;;;4993167;28;20206;-73
2021/11/02 21:39:10;;;;;;;6.80;3.33;;;7.20;99.90;;;;;;4993270;28;20226;-73
2021/11/02 21:41:39;;;;;;;4.37;2.60;;;7.30;99.90;;;;;;4993236;28;20244;-73
2021/11/02 21:44:08;;;;;;;7.07;3.07;;;7.40;99.90;;;;;;4993210;28;20614;-74
2021/11/02 21:46:41;;;;;;;6.67;3.40;;;7.40;99.90;;;;;;5005009;28;20202;-77
